createdAt,value
2019-05-19T00:01:21.376Z,86.50
2019-05-19T00:03:50.817Z,86.60
2019-05-19T00:06:18.832Z,86.90
2019-05-19T00:08:46.869Z,87.10
2019-05-19T00:11:14.780Z,87.70
2019-05-19T00:13:42.870Z,87.90
2019-05-19T00:16:10.807Z,89.30
2019-05-19T00:18:38.707Z,88.90
2019-05-19T00:21:06.721Z,89.40
2019-05-19T00:23:36.496Z,89.80
2019-05-19T00:26:04.440Z,90.00
2019-05-19T00:28:32.544Z,90.20
2019-05-19T00:31:00.447Z,90.30
2019-05-19T00:33:28.287Z,90.40
2019-05-19T00:35:56.396Z,90.50
2019-05-19T00:38:24.436Z,90.70
2019-05-19T00:40:52.491Z,90.90
2019-05-19T00:43:20.381Z,91.00
2019-05-19T00:45:48.388Z,91.10
2019-05-19T00:48:16.286Z,91.30
2019-05-19T00:50:45.132Z,91.50
2019-05-19T00:53:13.185Z,91.50
2019-05-19T00:55:43.081Z,91.70
2019-05-19T00:58:11.103Z,91.80
2019-05-19T01:00:41.286Z,91.90
2019-05-19T01:03:09.140Z,91.90
2019-05-19T01:05:37.185Z,92.00
2019-05-19T01:08:05.300Z,92.20
2019-05-19T01:10:33.306Z,92.40
2019-05-19T01:13:01.199Z,92.70
2019-05-19T01:15:29.022Z,92.90
2019-05-19T01:17:56.946Z,93.00
2019-05-19T01:20:24.792Z,93.10
2019-05-19T01:22:52.808Z,93.20
2019-05-19T01:25:20.803Z,93.30
2019-05-19T01:27:48.887Z,93.30
2019-05-19T01:30:17.751Z,93.10
2019-05-19T01:32:47.235Z,93.20
2019-05-19T01:35:15.281Z,93.50
2019-05-19T01:37:43.269Z,93.70
2019-05-19T01:40:11.242Z,93.70
2019-05-19T01:42:39.248Z,94.00
2019-05-19T01:45:07.287Z,94.80
2019-05-19T01:47:35.257Z,94.70
2019-05-19T01:50:16.865Z,94.70
2019-05-19T01:52:33.295Z,94.80
2019-05-19T01:55:04.289Z,94.80
2019-05-19T01:57:33.239Z,94.80
2019-05-19T02:00:01.142Z,95.00
2019-05-19T02:02:29.170Z,95.20
2019-05-19T02:04:57.176Z,95.40
2019-05-19T02:07:27.595Z,95.50
2019-05-19T02:09:55.576Z,95.80
2019-05-19T02:12:23.596Z,95.80
2019-05-19T02:14:52.661Z,95.90
2019-05-19T02:17:20.476Z,95.90
2019-05-19T02:19:48.518Z,95.80
2019-05-19T02:22:16.531Z,95.80
2019-05-19T02:24:44.625Z,95.80
2019-05-19T02:27:12.419Z,95.90
2019-05-19T02:29:40.322Z,95.90
2019-05-19T02:32:09.257Z,96.00
2019-05-19T02:34:37.398Z,96.10
2019-05-19T02:37:05.439Z,96.40
2019-05-19T02:39:33.381Z,96.80
2019-05-19T02:42:01.324Z,96.80
2019-05-19T02:44:29.332Z,97.00
2019-05-19T02:46:59.186Z,97.20
2019-05-19T02:49:27.072Z,97.30
2019-05-19T02:51:54.939Z,97.40
2019-05-19T02:54:23.487Z,97.50
2019-05-19T02:56:51.334Z,97.40
2019-05-19T02:59:19.371Z,97.40
2019-05-19T03:02:05.251Z,97.40
2019-05-19T03:04:33.250Z,97.50
2019-05-19T03:07:01.264Z,97.70
2019-05-19T03:09:32.833Z,97.80
2019-05-19T03:12:00.862Z,97.80
2019-05-19T06:59:50.468Z,86.00
2019-05-19T07:02:18.476Z,85.70
2019-05-19T07:04:46.556Z,85.00
2019-05-19T07:07:14.557Z,83.30
2019-05-19T07:09:57.134Z,81.30
2019-05-19T07:12:12.118Z,72.30
2019-05-19T07:14:40.433Z,66.70
2019-05-19T07:17:11.798Z,63.60
2019-05-19T07:19:41.147Z,62.30
2019-05-19T07:22:09.317Z,60.80
2019-05-19T07:24:37.316Z,58.70
2019-05-19T07:27:05.196Z,57.90
2019-05-19T07:29:33.387Z,57.60
2019-05-19T07:32:01.348Z,58.80
2019-05-19T07:34:32.156Z,58.50
2019-05-19T07:37:00.143Z,62.10
2019-05-19T07:39:28.287Z,67.90
2019-05-19T07:41:56.096Z,73.40
2019-05-19T07:44:23.968Z,78.50
2019-05-19T07:46:51.882Z,80.60
2019-05-19T07:49:20.002Z,82.90
2019-05-19T07:51:48.050Z,85.30
2019-05-19T07:54:16.179Z,87.60
2019-05-19T07:56:44.353Z,87.90
2019-05-19T07:59:12.562Z,89.40
2019-05-19T08:01:40.598Z,90.20
2019-05-19T08:04:08.646Z,90.20
2019-05-19T08:06:36.716Z,90.40
2019-05-19T08:09:06.245Z,90.10
2019-05-19T08:11:34.557Z,90.60
2019-05-19T08:14:02.717Z,91.10
2019-05-19T08:16:30.796Z,91.60
2019-05-19T08:18:58.764Z,92.20
2019-05-19T08:21:26.724Z,92.20
2019-05-19T08:24:00.268Z,92.10
2019-05-19T08:26:24.544Z,91.40
2019-05-19T08:28:52.590Z,90.10
2019-05-19T08:31:20.578Z,83.50
2019-05-19T08:33:48.618Z,71.40
2019-05-19T08:36:16.486Z,58.10
2019-05-19T08:38:44.550Z,48.60
2019-05-19T08:41:12.516Z,42.20
2019-05-19T08:43:40.405Z,35.20
2019-05-19T08:46:08.297Z,33.90
2019-05-19T08:48:36.142Z,34.20
2019-05-19T08:51:04.218Z,35.20
2019-05-19T08:53:32.384Z,36.10
2019-05-19T08:56:00.550Z,36.70
2019-05-19T08:58:28.624Z,37.20
2019-05-19T09:00:56.704Z,38.40
2019-05-19T09:03:24.711Z,40.20
2019-05-19T09:05:52.632Z,40.80
2019-05-19T09:08:20.622Z,42.20
2019-05-19T09:10:48.950Z,43.10
2019-05-19T09:13:16.843Z,42.00
2019-05-19T09:15:44.847Z,40.40
2019-05-19T09:18:12.811Z,39.90
2019-05-19T09:20:40.767Z,39.40
2019-05-19T09:23:08.717Z,40.20
2019-05-19T09:25:36.570Z,40.60
2019-05-19T09:28:04.411Z,39.40
2019-05-19T09:30:32.308Z,37.10
2019-05-19T09:33:00.060Z,34.90
2019-05-19T09:35:28.011Z,32.80
2019-05-19T09:37:55.859Z,29.70
2019-05-19T09:40:26.518Z,28.60
2019-05-19T09:42:53.301Z,26.80
2019-05-19T09:45:21.135Z,26.00
2019-05-19T09:47:48.972Z,24.40
2019-05-19T09:50:16.858Z,24.00
2019-05-19T09:52:44.954Z,23.60
2019-05-19T09:55:13.363Z,23.50
2019-05-19T09:57:41.451Z,23.50
2019-05-19T10:00:10.962Z,23.80
2019-05-19T10:02:39.282Z,23.90
2019-05-19T10:05:07.760Z,23.40
2019-05-19T10:07:36.075Z,23.50
2019-05-19T10:10:17.445Z,23.50
2019-05-19T10:12:45.846Z,24.10
2019-05-19T10:15:14.562Z,25.00
2019-05-19T10:17:42.713Z,26.50
2019-05-19T10:20:10.963Z,27.50
2019-05-19T10:22:39.127Z,29.30
2019-05-19T10:25:21.082Z,30.00
2019-05-19T10:27:37.692Z,29.70
2019-05-19T10:30:06.634Z,30.40
2019-05-19T10:32:34.885Z,32.20
2019-05-19T10:35:03.034Z,35.20
2019-05-19T10:37:31.397Z,37.90
2019-05-19T10:39:59.549Z,40.20
2019-05-19T10:42:27.884Z,42.40
2019-05-19T10:44:56.117Z,44.00
2019-05-19T10:47:24.517Z,45.10
2019-05-19T10:49:52.676Z,46.40
2019-05-19T10:52:20.917Z,47.80
2019-05-19T10:54:49.240Z,48.00
2019-05-19T10:57:17.637Z,45.70
2019-05-19T10:59:45.792Z,43.50
2019-05-19T11:02:13.957Z,41.50
2019-05-19T11:04:41.971Z,39.50
2019-05-19T11:07:10.335Z,40.30
2019-05-19T11:09:38.532Z,40.10
2019-05-19T11:12:06.801Z,40.70
2019-05-19T11:14:34.873Z,41.10
2019-05-19T11:17:03.194Z,41.80
2019-05-19T11:19:31.248Z,41.40
2019-05-19T11:21:59.066Z,42.10
2019-05-19T11:24:26.875Z,43.20
2019-05-19T11:26:55.542Z,44.50
2019-05-19T11:29:23.538Z,46.00
2019-05-19T11:31:51.654Z,47.20
2019-05-19T11:34:22.433Z,47.90
2019-05-19T11:36:50.596Z,48.50
2019-05-19T11:39:18.689Z,49.50
2019-05-19T11:41:46.831Z,48.60
2019-05-19T11:44:15.191Z,47.40
2019-05-19T11:46:43.777Z,49.00
2019-05-19T11:49:12.162Z,49.20
2019-05-19T11:51:40.752Z,50.10
2019-05-19T11:54:10.080Z,49.50
2019-05-19T11:56:44.680Z,49.40
2019-05-19T11:59:15.588Z,48.60
2019-05-19T12:01:55.991Z,48.50
2019-05-19T12:07:01.586Z,48.60
2019-05-19T12:09:42.026Z,48.20
2019-05-19T12:12:10.320Z,47.30
2019-05-19T12:14:41.412Z,47.70
2019-05-19T12:17:12.221Z,47.80
2019-05-19T12:19:40.713Z,47.70
2019-05-19T12:22:09.105Z,48.10
2019-05-19T12:24:40.604Z,48.40
2019-05-19T12:27:09.122Z,48.00
2019-05-19T12:29:37.368Z,48.20
2019-05-19T12:32:06.887Z,48.20
2019-05-19T12:34:37.909Z,49.00
2019-05-19T12:37:08.221Z,48.20
2019-05-19T12:39:36.534Z,48.30
2019-05-19T12:42:05.039Z,48.80
2019-05-19T12:44:33.601Z,47.40
2019-05-19T12:47:02.437Z,47.20
2019-05-19T12:49:32.929Z,47.40
2019-05-19T12:52:01.894Z,47.90
2019-05-19T12:54:31.137Z,48.30
2019-05-19T12:57:00.436Z,47.90
2019-05-19T12:59:37.652Z,48.20
2019-05-19T13:02:09.205Z,48.10
2019-05-19T13:04:38.755Z,48.30
2019-05-19T13:07:08.323Z,48.50
2019-05-19T13:09:37.593Z,49.00
2019-05-19T13:12:06.537Z,47.50
2019-05-19T13:14:36.968Z,47.60
2019-05-19T13:17:10.267Z,47.50
2019-05-19T13:19:37.419Z,46.90
2019-05-19T13:22:07.558Z,47.10
2019-05-19T13:24:36.035Z,47.30
2019-05-19T13:27:04.488Z,46.60
2019-05-19T13:29:32.836Z,45.80
2019-05-19T13:32:04.215Z,46.20
2019-05-19T13:34:32.490Z,46.00
2019-05-19T13:37:02.201Z,46.00
2019-05-19T13:39:30.872Z,46.00
2019-05-19T13:41:59.462Z,46.10
2019-05-19T13:44:29.437Z,45.00
2019-05-19T13:46:59.312Z,45.70
2019-05-19T13:49:29.287Z,45.60
2019-05-19T13:51:59.351Z,45.70
2019-05-19T13:54:31.114Z,45.80
2019-05-19T13:57:11.290Z,45.60
2019-05-19T13:59:33.823Z,44.70
2019-05-19T14:02:06.212Z,45.40
2019-05-19T14:04:36.654Z,45.90
2019-05-19T14:07:06.050Z,45.50
2019-05-19T14:09:35.506Z,46.70
2019-05-19T14:12:03.917Z,46.70
2019-05-19T14:14:34.909Z,47.10
2019-05-19T14:17:04.390Z,46.90
2019-05-19T14:19:34.528Z,47.10
2019-05-19T14:22:07.194Z,46.30
2019-05-19T14:24:37.277Z,46.80
2019-05-19T14:27:08.921Z,46.90
2019-05-19T14:29:40.050Z,47.30
2019-05-19T14:32:12.408Z,47.50
2019-05-19T14:34:41.028Z,48.00
2019-05-19T14:37:10.865Z,48.00
2019-05-19T14:39:39.216Z,48.40
2019-05-19T14:42:10.301Z,48.20
2019-05-19T14:44:38.793Z,48.00
2019-05-19T14:47:11.331Z,48.30
2019-05-19T14:49:39.567Z,48.30
2019-05-19T14:52:10.766Z,48.60
2019-05-19T14:54:42.453Z,48.60
2019-05-19T14:57:14.692Z,49.00
2019-05-19T14:59:45.958Z,49.40
2019-05-19T15:02:14.303Z,49.70
2019-05-19T15:04:47.040Z,49.90
2019-05-19T15:07:17.673Z,50.20
2019-05-19T15:09:46.900Z,50.30
2019-05-19T15:12:17.354Z,50.30
2019-05-19T15:14:48.516Z,50.20
2019-05-19T15:17:18.386Z,50.20
2019-05-19T15:19:46.896Z,50.80
2019-05-19T15:22:15.082Z,51.10
2019-05-19T15:24:45.207Z,51.50
2019-05-19T15:27:15.735Z,51.70
2019-05-19T15:29:44.118Z,51.70
2019-05-19T15:32:12.602Z,51.90
2019-05-19T15:34:41.301Z,51.40
2019-05-19T15:37:09.606Z,52.00
2019-05-19T15:39:37.829Z,53.20
2019-05-19T15:42:07.578Z,54.20
2019-05-19T15:44:37.201Z,55.50
2019-05-19T15:47:05.793Z,56.40
2019-05-19T15:49:34.399Z,56.90
2019-05-19T15:52:05.398Z,57.30
2019-05-19T15:54:33.293Z,57.80
2019-05-19T15:57:04.795Z,58.60
2019-05-19T15:59:34.181Z,58.70
2019-05-19T16:02:05.661Z,58.60
2019-05-19T16:04:37.574Z,57.30
2019-05-19T16:07:08.951Z,56.80
2019-05-19T16:09:37.710Z,54.50
2019-05-19T16:12:07.198Z,54.20
2019-05-19T16:14:36.084Z,53.80
2019-05-19T16:17:04.522Z,53.80
2019-05-19T16:19:32.830Z,55.10
2019-05-19T16:22:01.473Z,56.50
2019-05-19T16:24:29.809Z,57.20
2019-05-19T16:26:58.330Z,57.40
2019-05-19T16:29:29.349Z,58.70
2019-05-19T16:31:57.749Z,59.50
2019-05-19T16:34:26.051Z,60.40
2019-05-19T16:36:54.391Z,61.20
2019-05-19T16:39:23.185Z,62.00
2019-05-19T16:41:51.740Z,62.90
2019-05-19T16:44:20.530Z,63.70
2019-05-19T16:46:52.041Z,64.70
2019-05-19T16:49:29.410Z,65.20
2019-05-19T16:52:00.547Z,65.60
2019-05-19T16:54:37.171Z,65.90
2019-05-19T16:57:07.017Z,65.20
2019-05-19T16:59:41.247Z,65.10
2019-05-19T17:02:12.766Z,64.80
2019-05-19T17:04:51.373Z,65.00
2019-05-19T17:07:21.589Z,66.00
2019-05-19T17:09:51.569Z,67.50
2019-05-19T17:12:20.560Z,69.20
2019-05-19T17:14:54.498Z,69.40
2019-05-19T17:17:23.414Z,69.70
2019-05-19T17:19:55.022Z,70.00
2019-05-19T17:22:27.296Z,70.20
2019-05-19T17:24:59.958Z,70.40
2019-05-19T17:27:30.720Z,71.40
2019-05-19T17:29:59.353Z,72.20
2019-05-19T17:32:31.618Z,72.30
2019-05-19T17:35:07.433Z,72.60
2019-05-19T17:37:36.517Z,72.70
2019-05-19T17:40:10.369Z,73.20
2019-05-19T17:42:43.921Z,73.40
2019-05-19T17:45:17.133Z,73.30
2019-05-19T17:47:48.437Z,73.60
2019-05-19T17:50:18.920Z,73.40
2019-05-19T17:52:48.018Z,73.40
2019-05-19T17:55:16.740Z,73.50
2019-05-19T17:57:46.863Z,73.70
2019-05-19T18:00:20.103Z,74.40
2019-05-19T18:02:52.917Z,75.00
2019-05-19T18:05:23.133Z,76.40
2019-05-19T18:07:54.820Z,76.70
2019-05-19T18:10:26.258Z,77.40
2019-05-19T18:12:58.731Z,78.40
2019-05-19T18:15:29.976Z,79.10
2019-05-19T18:18:03.196Z,79.70
2019-05-19T18:20:39.544Z,80.40
2019-05-19T18:23:07.722Z,80.90
2019-05-19T18:25:40.013Z,81.60
2019-05-19T18:28:14.094Z,82.00
2019-05-19T18:30:43.722Z,82.30
2019-05-19T18:33:13.148Z,81.60
2019-05-19T18:35:44.587Z,81.40
2019-05-19T18:38:13.333Z,81.20
2019-05-19T18:40:41.507Z,81.60
2019-05-19T18:43:15.077Z,82.50
2019-05-19T18:45:44.464Z,82.90
2019-05-19T18:48:23.418Z,83.00
2019-05-19T18:50:52.647Z,82.30
2019-05-19T18:53:21.212Z,82.50
2019-05-19T18:55:57.782Z,82.80
2019-05-19T18:58:27.002Z,82.60
2019-05-19T19:00:58.721Z,83.50
2019-05-19T19:03:27.203Z,83.50
2019-05-19T19:05:57.040Z,83.60
2019-05-19T19:08:25.418Z,81.20
2019-05-19T19:11:01.059Z,80.80
2019-05-19T19:13:31.604Z,80.10
2019-05-19T19:16:02.011Z,78.70
2019-05-19T19:18:31.622Z,76.90
2019-05-19T19:21:08.982Z,77.00
2019-05-19T19:23:45.196Z,77.20
2019-05-19T19:26:13.580Z,77.30
2019-05-19T19:28:41.752Z,77.00
2019-05-19T19:34:07.938Z,76.00
2019-05-19T19:36:41.803Z,76.30
2019-05-19T19:39:10.957Z,76.70
2019-05-19T19:41:39.112Z,77.20
2019-05-19T19:44:07.414Z,77.80
2019-05-19T19:46:37.091Z,78.60
2019-05-19T19:49:05.496Z,79.60
2019-05-19T19:51:38.485Z,80.40
2019-05-19T19:54:07.725Z,80.80
2019-05-19T19:56:39.695Z,80.80
2019-05-19T19:59:09.050Z,81.70
2019-05-19T20:01:38.365Z,81.70
2019-05-19T20:04:07.722Z,81.50
2019-05-19T20:06:35.676Z,81.50
2019-05-19T20:09:05.018Z,81.00
2019-05-19T20:11:33.014Z,80.40
2019-05-19T20:14:01.455Z,79.50
2019-05-19T20:16:29.456Z,78.80
2019-05-19T20:18:57.733Z,79.10
2019-05-19T20:21:25.624Z,79.30
2019-05-19T20:23:53.577Z,78.60
2019-05-19T20:26:21.454Z,78.70
2019-05-19T20:28:49.313Z,77.90
2019-05-19T20:31:17.469Z,77.50
2019-05-19T20:33:45.556Z,77.10
2019-05-19T20:36:13.524Z,75.60
2019-05-19T20:38:41.573Z,75.60
2019-05-19T20:41:09.748Z,74.60
2019-05-19T20:43:37.948Z,74.40
2019-05-19T20:46:05.823Z,74.00
2019-05-19T20:48:33.888Z,74.20
2019-05-19T20:51:02.011Z,73.50
2019-05-19T20:53:30.321Z,73.50
2019-05-19T20:55:58.450Z,73.30
2019-05-19T20:58:26.608Z,73.10
2019-05-19T21:00:54.734Z,73.20
2019-05-19T21:03:23.049Z,73.20
2019-05-19T21:05:51.139Z,73.00
2019-05-19T21:08:19.186Z,73.00
2019-05-19T21:10:46.972Z,73.00
2019-05-19T21:13:14.871Z,73.00
2019-05-19T21:15:42.831Z,73.10
2019-05-19T21:18:10.636Z,73.40
2019-05-19T21:20:38.406Z,73.70
2019-05-19T21:23:06.361Z,73.80
2019-05-19T21:25:34.830Z,74.00
2019-05-19T21:28:04.290Z,74.00
2019-05-19T21:30:32.100Z,74.50
2019-05-19T21:33:00.044Z,74.50
2019-05-19T21:35:27.849Z,74.80
2019-05-19T21:37:55.681Z,75.10
2019-05-19T21:40:23.520Z,75.40
2019-05-19T21:42:51.347Z,75.70
2019-05-19T21:45:19.185Z,76.10
2019-05-19T21:47:47.707Z,76.90
2019-05-19T21:50:15.761Z,77.50
2019-05-19T21:52:47.885Z,78.00
2019-05-19T21:55:15.987Z,78.50
2019-05-19T21:57:44.103Z,79.00
2019-05-19T22:00:13.831Z,79.70
2019-05-19T22:02:41.959Z,80.10
2019-05-19T22:05:09.804Z,80.60
2019-05-19T22:07:39.337Z,81.10
2019-05-19T22:10:07.364Z,81.10
2019-05-19T22:12:35.224Z,81.30
2019-05-19T22:15:03.095Z,81.30
2019-05-19T22:17:30.971Z,81.90
2019-05-19T22:19:58.842Z,82.40
2019-05-19T22:22:26.754Z,82.70
2019-05-19T22:24:54.690Z,83.00
2019-05-19T22:27:22.535Z,83.40
2019-05-19T22:29:50.492Z,84.00
2019-05-19T22:32:18.489Z,84.40
2019-05-19T22:34:46.333Z,84.80
2019-05-19T22:37:14.362Z,85.30
2019-05-19T22:39:42.450Z,85.80
2019-05-19T22:42:10.815Z,86.40
2019-05-19T22:44:38.912Z,86.60
2019-05-19T22:47:07.035Z,87.10
2019-05-19T22:49:35.934Z,87.50
2019-05-19T22:52:04.004Z,87.60
2019-05-19T22:54:31.902Z,87.80
2019-05-19T22:56:59.843Z,88.00
2019-05-19T22:59:28.030Z,88.30
2019-05-19T23:01:55.879Z,88.40
2019-05-19T23:04:23.757Z,88.80
2019-05-19T23:06:52.031Z,89.00
2019-05-19T23:09:19.900Z,89.10
2019-05-19T23:11:47.977Z,89.30
2019-05-19T23:14:15.780Z,89.40
2019-05-19T23:16:43.678Z,89.70
2019-05-19T23:19:11.498Z,90.00
2019-05-19T23:21:39.974Z,90.10
2019-05-19T23:24:09.349Z,90.20
2019-05-19T23:26:38.927Z,90.30
2019-05-19T23:29:06.764Z,90.40
2019-05-19T23:31:34.673Z,90.50
2019-05-19T23:34:04.168Z,90.60
2019-05-19T23:36:31.989Z,90.70
2019-05-19T23:39:00.112Z,90.90
2019-05-19T23:41:28.317Z,91.00
2019-05-19T23:43:56.427Z,91.20
2019-05-19T23:46:24.216Z,91.30
2019-05-19T23:48:52.116Z,91.40
2019-05-19T23:51:19.967Z,91.60
2019-05-19T23:53:47.747Z,91.70
2019-05-19T23:56:15.587Z,91.80
2019-05-19T23:58:43.445Z,91.80
